Time;durP1;ratioP1;P1;durP2;ratioP2;P2;SDS_P1;SDS_P2;PMS_P1;PMS_P2;Temp;Humidity;BMP_temperature;BMP_pressure;BME280_temperature;BME280_humidity;BME280_pressure;Samples;Min_cycle;Max_cycle;Signal;HPM_P1;HPM_P2
2021/11/19 00:00:40;;;;;;;863.73;805.97;;;21.60;99.90;;;;;;5066620;28;20202;-69
2021/11/19 00:03:08;;;;;;;851.03;795.80;;;21.70;99.90;;;;;;5071699;28;20210;-68
2021/11/19 00:05:37;;;;;;;873.63;816.07;;;21.70;99.90;;;;;;5071145;28;20595;-68
2021/11/19 00:08:05;;;;;;;837.73;783.50;;;21.90;99.90;;;;;;5070413;28;20504;-69
2021/11/19 00:10:33;;;;;;;843.80;789.27;;;22.00;99.90;;;;;;5070708;28;20584;-69
2021/11/19 00:13:01;;;;;;;829.83;776.43;;;22.20;99.90;;;;;;5070599;28;20206;-68
2021/11/19 00:15:28;;;;;;;912.17;849.57;;;22.20;99.90;;;;;;5071819;28;20167;-69
2021/11/19 00:17:55;;;;;;;926.30;860.13;;;22.20;99.90;;;;;;5072174;28;20186;-69
2021/11/19 00:20:28;;;;;;;910.73;847.33;;;22.30;99.90;;;;;;5070314;28;20175;-70
2021/11/19 00:23:01;;;;;;;872.57;815.37;;;22.40;99.90;;;;;;5072321;28;20179;-69
2021/11/19 00:25:29;;;;;;;929.60;866.00;;;22.60;99.90;;;;;;5072463;28;20167;-71
2021/11/19 00:27:57;;;;;;;840.60;786.43;;;22.60;99.90;;;;;;5070787;28;20645;-71
2021/11/19 00:30:26;;;;;;;694.77;651.10;;;22.70;99.90;;;;;;5071009;28;20533;-69
2021/11/19 00:32:53;;;;;;;672.67;630.63;;;22.90;99.90;;;;;;5071946;28;20273;-69
2021/11/19 00:35:21;;;;;;;776.63;727.03;;;23.00;99.90;;;;;;5065642;28;20190;-69
2021/11/19 00:37:55;;;;;;;903.13;843.20;;;23.10;99.90;;;;;;5070787;28;20252;-69
2021/11/19 00:40:32;;;;;;;879.47;822.43;;;23.20;99.90;;;;;;5071075;28;20268;-70
2021/11/19 00:43:00;;;;;;;904.77;845.73;;;23.40;99.90;;;;;;5070963;28;20178;-69
2021/11/19 00:45:27;;;;;;;931.07;869.50;;;23.60;99.90;;;;;;5071623;28;20202;-70
2021/11/19 00:47:57;;;;;;;530.47;497.90;;;23.70;99.90;;;;;;5071484;28;20262;-70
2021/11/19 00:50:30;;;;;;;757.97;709.27;;;23.80;99.90;;;;;;5069982;28;20189;-70
2021/11/19 00:52:58;;;;;;;773.00;723.53;;;24.10;99.90;;;;;;5071684;28;20215;-71
2021/11/19 00:55:25;;;;;;;696.93;652.23;;;24.30;99.90;;;;;;5071197;28;20181;-69
2021/11/19 00:57:53;;;;;;;605.67;567.30;;;24.50;99.90;;;;;;5070637;28;20698;-71
2021/11/19 01:00:25;;;;;;;612.87;574.07;;;24.70;99.90;;;;;;5071087;28;20566;-71
2021/11/19 01:02:53;;;;;;;643.47;602.67;;;24.90;99.90;;;;;;5063949;28;20183;-72
2021/11/19 01:05:21;;;;;;;639.80;598.63;;;24.90;99.90;;;;;;5069922;28;20567;-72
2021/11/19 01:07:48;;;;;;;803.07;751.53;;;24.90;99.90;;;;;;5070835;28;20171;-72
2021/11/19 01:10:20;;;;;;;669.77;626.70;;;25.10;99.90;;;;;;5069951;28;20507;-71
2021/11/19 01:12:48;;;;;;;701.47;656.53;;;25.30;99.90;;;;;;5070274;28;20215;-72
2021/11/19 01:15:22;;;;;;;723.20;676.23;;;25.60;99.90;;;;;;5071855;28;20191;-72
2021/11/19 01:18:01;;;;;;;896.57;838.17;;;26.00;99.90;;;;;;5070805;28;20178;-72
2021/11/19 01:20:52;;;;;;;919.37;859.70;;;26.10;99.90;;;;;;5069942;28;20276;-71
2021/11/19 01:23:22;;;;;;;939.20;877.67;;;26.50;99.90;;;;;;5068454;28;20190;-72
2021/11/19 01:25:54;;;;;;;933.40;872.40;;;26.40;99.90;;;;;;5069644;28;20179;-72
2021/11/19 01:28:23;;;;;;;879.23;822.33;;;26.50;99.90;;;;;;5071113;28;20211;-70
2021/11/19 01:30:57;;;;;;;801.83;749.90;;;26.70;99.90;;;;;;5064697;28;20183;-72
2021/11/19 01:33:25;;;;;;;867.07;810.13;;;26.90;99.90;;;;;;5068428;28;20229;-72
2021/11/19 01:35:54;;;;;;;854.47;798.43;;;27.00;99.90;;;;;;5068290;28;20775;-70
2021/11/19 01:38:21;;;;;;;859.30;802.80;;;27.30;99.90;;;;;;5069461;28;20179;-71
2021/11/19 01:40:54;;;;;;;811.03;757.27;;;27.60;99.90;;;;;;5069988;28;20641;-71
2021/11/19 01:43:22;;;;;;;697.83;651.63;;;27.90;99.50;;;;;;5070489;28;20190;-71
2021/11/19 01:45:55;;;;;;;703.73;656.07;;;27.90;99.20;;;;;;5071027;28;20300;-71
2021/11/19 01:48:29;;;;;;;683.97;638.10;;;27.90;98.30;;;;;;5071141;28;20645;-72
2021/11/19 01:51:19;;;;;;;655.60;610.77;;;27.90;98.60;;;;;;5071262;28;20201;-72
2021/11/19 01:54:04;;;;;;;663.17;618.03;;;28.00;97.90;;;;;;5068879;28;20329;-72
2021/11/19 01:57:15;;;;;;;721.57;672.67;;;28.10;97.60;;;;;;5068553;28;20194;-72
2021/11/19 01:59:48;;;;;;;707.80;659.90;;;28.50;97.10;;;;;;5063217;28;20227;-71
2021/11/19 02:02:23;;;;;;;744.70;694.40;;;28.70;96.30;;;;;;5058766;28;20175;-72
2021/11/19 02:04:57;;;;;;;741.13;691.27;;;28.90;96.20;;;;;;5070291;28;20240;-72
2021/11/19 02:07:44;;;;;;;923.73;861.97;;;28.90;95.00;;;;;;5068098;28;20187;-71
2021/11/19 02:10:38;;;;;;;671.27;625.57;;;29.10;95.40;;;;;;5069399;28;20190;-71
2021/11/19 02:13:35;;;;;;;781.90;729.10;;;29.40;95.20;;;;;;5070954;28;20309;-72
2021/11/19 02:16:09;;;;;;;725.57;676.10;;;29.40;92.70;;;;;;5051337;28;20198;-68
2021/11/19 02:19:14;;;;;;;748.33;697.10;;;29.70;93.20;;;;;;5069312;28;20188;-69
2021/11/19 02:21:48;;;;;;;615.40;572.17;;;29.80;91.50;;;;;;5046229;28;20194;-72
2021/11/19 02:24:28;;;;;;;517.33;481.73;;;29.90;90.70;;;;;;5070950;28;20185;-69
2021/11/19 02:27:04;;;;;;;707.70;659.13;;;29.90;89.80;;;;;;5068250;28;20684;-70
2021/11/19 02:29:38;;;;;;;725.93;675.37;;;30.10;85.70;;;;;;5070785;28;20179;-71
2021/11/19 02:32:10;;;;;;;689.03;641.13;;;30.00;84.80;;;;;;5070675;28;20187;-72
2021/11/19 02:34:38;;;;;;;971.47;905.40;;;30.00;85.10;;;;;;5070300;28;20186;-73
2021/11/19 02:37:17;;;;;;;918.20;855.60;;;29.80;85.70;;;;;;5068057;28;20186;-72
2021/11/19 02:39:49;;;;;;;1067.80;993.43;;;29.30;87.30;;;;;;5067465;28;20206;-72
2021/11/19 02:42:27;;;;;;;1087.20;999.90;;;29.10;88.50;;;;;;5070074;28;20183;-72
2021/11/19 02:44:57;;;;;;;1099.73;999.90;;;29.50;89.20;;;;;;5078191;28;20193;-77
2021/11/19 02:47:27;;;;;;;1106.30;999.90;;;29.70;89.40;;;;;;5069300;28;20175;-71
2021/11/19 02:49:55;;;;;;;1108.93;999.90;;;29.80;89.70;;;;;;5073359;28;20222;-71
2021/11/19 02:52:30;;;;;;;1008.67;940.27;;;30.10;89.70;;;;;;5073072;28;20242;-70
2021/11/19 02:54:59;;;;;;;957.63;892.43;;;30.30;88.60;;;;;;5072589;28;20265;-72
2021/11/19 02:57:27;;;;;;;1099.37;999.90;;;30.60;87.80;;;;;;5068553;28;20190;-71
2021/11/19 02:59:57;;;;;;;1065.50;990.90;;;31.00;86.90;;;;;;5074331;28;20175;-71
2021/11/19 03:02:29;;;;;;;1071.37;995.53;;;31.40;86.20;;;;;;5074285;28;20258;-73
2021/11/19 03:05:01;;;;;;;1128.80;999.90;;;31.10;85.60;;;;;;5074242;28;20264;-71
2021/11/19 03:07:30;;;;;;;1070.67;995.10;;;31.10;85.70;;;;;;5072541;28;20183;-70
2021/11/19 03:10:03;;;;;;;1081.67;999.80;;;31.10;85.70;;;;;;5073996;28;20236;-71
2021/11/19 03:12:34;;;;;;;1091.80;999.90;;;31.20;85.20;;;;;;5066287;28;20546;-69
2021/11/19 03:15:04;;;;;;;1036.00;963.20;;;31.00;86.30;;;;;;5074317;28;20316;-70
2021/11/19 03:17:32;;;;;;;981.70;912.63;;;31.10;86.70;;;;;;5066768;28;20171;-70
2021/11/19 03:19:59;;;;;;;909.47;845.07;;;31.20;86.30;;;;;;5073976;28;20179;-71
2021/11/19 03:22:30;;;;;;;790.33;733.77;;;31.50;85.80;;;;;;5073803;28;20195;-70
2021/11/19 03:24:58;;;;;;;769.90;714.63;;;31.70;86.20;;;;;;5073946;28;20176;-69
2021/11/19 03:27:28;;;;;;;846.25;785.45;;;31.90;86.50;;;;;;5071477;28;20191;-72
2021/11/19 03:29:57;;;;;;;852.57;791.00;;;31.90;86.50;;;;;;5075069;28;20682;-70
2021/11/19 03:32:29;;;;;;;886.63;823.57;;;31.90;86.10;;;;;;5073850;28;20223;-72
2021/11/19 03:34:57;;;;;;;796.35;739.45;;;31.70;83.30;;;;;;5074307;28;20491;-69
2021/11/19 03:37:26;;;;;;;819.87;760.90;;;31.50;85.50;;;;;;5075569;28;20545;-69
2021/11/19 03:39:53;;;;;;;907.43;842.93;;;31.40;83.90;;;;;;5076405;28;20252;-69
2021/11/19 03:42:23;;;;;;;828.03;768.77;;;31.20;81.70;;;;;;5073261;28;20191;-71
2021/11/19 03:44:59;;;;;;;692.43;642.30;;;31.40;81.80;;;;;;5073295;28;20175;-71
2021/11/19 03:47:37;;;;;;;753.50;699.60;;;31.30;80.90;;;;;;5075435;28;20277;-69
2021/11/19 03:50:20;;;;;;;684.33;635.10;;;30.90;88.10;;;;;;5072474;28;20509;-71
2021/11/19 03:52:47;;;;;;;727.20;675.47;;;30.70;87.70;;;;;;5073590;28;20873;-74
2021/11/19 03:55:19;;;;;;;769.20;713.57;;;30.60;83.70;;;;;;5074238;28;20167;-69
2021/11/19 03:57:48;;;;;;;752.47;698.63;;;30.70;86.10;;;;;;5070417;28;20210;-71
2021/11/19 04:00:26;;;;;;;790.70;734.80;;;30.60;88.30;;;;;;5071940;28;20673;-71
2021/11/19 04:02:55;;;;;;;700.73;650.10;;;30.40;89.40;;;;;;5068927;28;20182;-72
2021/11/19 04:05:24;;;;;;;721.77;669.90;;;30.10;89.60;;;;;;5071933;28;20270;-70
2021/11/19 04:07:51;;;;;;;727.80;675.53;;;29.90;90.30;;;;;;5075936;28;20266;-71
2021/11/19 04:10:19;;;;;;;662.87;615.03;;;29.70;90.80;;;;;;5072178;28;20207;-69
2021/11/19 04:12:47;;;;;;;706.90;657.03;;;29.70;90.50;;;;;;5072636;28;20203;-71
2021/11/19 04:15:19;;;;;;;771.37;717.80;;;29.40;90.50;;;;;;5073762;28;20716;-70
2021/11/19 04:17:46;;;;;;;772.57;718.60;;;29.40;90.70;;;;;;5077423;28;20175;-70
2021/11/19 04:20:15;;;;;;;759.50;706.50;;;29.30;90.70;;;;;;5077580;28;20172;-71
2021/11/19 04:22:43;;;;;;;626.87;582.33;;;29.50;91.00;;;;;;5067557;28;20177;-71
2021/11/19 04:25:14;;;;;;;984.23;916.17;;;29.40;90.80;;;;;;5074697;28;20229;-71
2021/11/19 04:27:41;;;;;;;903.57;840.67;;;29.20;91.10;;;;;;5067849;28;20179;-70
2021/11/19 04:30:12;;;;;;;902.13;840.50;;;29.30;91.20;;;;;;5079521;28;20720;-69
2021/11/19 04:32:40;;;;;;;914.90;851.83;;;29.20;91.40;;;;;;5073058;28;20217;-70
2021/11/19 04:35:08;;;;;;;1022.90;952.50;;;29.10;91.40;;;;;;5072162;28;20178;-72
2021/11/19 04:37:35;;;;;;;990.50;923.10;;;29.00;91.40;;;;;;5079053;28;20744;-71
2021/11/19 04:40:05;;;;;;;940.80;875.97;;;29.00;91.90;;;;;;5072997;28;20179;-69
2021/11/19 04:42:33;;;;;;;948.77;884.07;;;29.00;91.40;;;;;;5071354;28;20674;-71
2021/11/19 04:45:00;;;;;;;1013.90;944.37;;;29.10;91.70;;;;;;5071460;28;20183;-72
2021/11/19 04:47:28;;;;;;;1033.80;963.20;;;29.10;91.70;;;;;;5069814;28;20733;-70
2021/11/19 04:49:55;;;;;;;1015.77;946.27;;;29.20;91.60;;;;;;5072150;28;20333;-72
2021/11/19 04:52:22;;;;;;;934.57;870.70;;;28.90;91.40;;;;;;5072221;28;20183;-71
2021/11/19 04:54:50;;;;;;;907.80;845.83;;;28.80;91.80;;;;;;5072285;28;20559;-70
2021/11/19 04:57:17;;;;;;;1047.27;975.17;;;28.60;91.70;;;;;;5070852;28;20178;-71
2021/11/19 04:59:45;;;;;;;908.70;845.87;;;28.60;92.00;;;;;;5071502;28;20886;-70
2021/11/19 05:02:15;;;;;;;862.93;804.00;;;28.70;92.10;;;;;;5071571;28;20232;-70
2021/11/19 05:04:43;;;;;;;962.20;896.53;;;28.70;91.50;;;;;;5075979;28;20220;-70
2021/11/19 05:07:11;;;;;;;895.80;834.37;;;29.00;91.80;;;;;;5072651;28;20187;-71
2021/11/19 05:09:38;;;;;;;869.70;810.10;;;29.10;91.50;;;;;;5071494;28;20206;-70
2021/11/19 05:12:19;;;;;;;976.90;910.20;;;29.20;91.30;;;;;;5070830;28;20183;-69
2021/11/19 05:14:49;;;;;;;817.27;761.77;;;28.90;91.40;;;;;;5067578;28;20314;-69
2021/11/19 05:17:21;;;;;;;865.70;806.73;;;28.80;91.50;;;;;;5070504;28;20654;-70
2021/11/19 05:19:50;;;;;;;1037.03;966.10;;;28.80;91.50;;;;;;5071960;28;20589;-70
2021/11/19 05:22:18;;;;;;;947.37;882.93;;;28.80;91.50;;;;;;5068314;28;20522;-70
2021/11/19 05:24:46;;;;;;;919.50;856.57;;;28.80;91.40;;;;;;5072048;28;20745;-71
2021/11/19 05:27:13;;;;;;;973.00;906.90;;;28.60;91.40;;;;;;5071591;28;20179;-70
2021/11/19 05:29:41;;;;;;;964.97;899.63;;;28.50;91.20;;;;;;5071935;28;20214;-72
2021/11/19 05:32:09;;;;;;;1023.47;954.17;;;28.50;91.50;;;;;;5070559;28;20232;-71
2021/11/19 05:34:38;;;;;;;1081.37;999.70;;;28.50;91.40;;;;;;5065865;28;20191;-70
2021/11/19 05:37:05;;;;;;;1088.63;999.90;;;28.50;91.60;;;;;;5071278;28;20222;-71
2021/11/19 05:39:33;;;;;;;1066.63;992.83;;;28.40;91.70;;;;;;5071891;28;20262;-72
2021/11/19 05:42:00;;;;;;;1077.47;998.87;;;28.30;91.70;;;;;;5071078;28;20183;-70
2021/11/19 05:44:27;;;;;;;1052.00;979.87;;;28.30;91.80;;;;;;5071641;28;20191;-70
2021/11/19 05:46:55;;;;;;;1067.37;993.83;;;28.30;91.80;;;;;;5071828;28;20555;-69
2021/11/19 05:49:24;;;;;;;1020.07;950.80;;;28.30;92.20;;;;;;5071567;28;20198;-70
2021/11/19 05:51:53;;;;;;;1029.53;959.00;;;28.30;92.20;;;;;;5071500;28;20997;-71
2021/11/19 05:54:23;;;;;;;1104.93;999.90;;;28.30;92.50;;;;;;5071477;28;20301;-70
2021/11/19 05:56:51;;;;;;;1037.93;965.67;;;28.20;92.20;;;;;;5074746;28;20192;-68
2021/11/19 05:59:20;;;;;;;1019.07;949.43;;;28.20;92.40;;;;;;5071466;28;20551;-70
2021/11/19 06:01:48;;;;;;;935.57;871.83;;;28.30;92.60;;;;;;5067860;28;20264;-69
2021/11/19 06:04:16;;;;;;;1078.87;999.43;;;28.30;92.60;;;;;;5070224;28;20656;-69
2021/11/19 06:06:43;;;;;;;1099.70;999.90;;;28.20;92.40;;;;;;5071466;28;20260;-69
2021/11/19 06:09:18;;;;;;;1083.77;999.90;;;28.20;92.90;;;;;;5069802;28;20182;-68
2021/11/19 06:12:08;;;;;;;1072.83;996.20;;;28.30;92.50;;;;;;5071734;28;20193;-70
2021/11/19 06:14:40;;;;;;;1110.63;999.90;;;27.90;93.60;;;;;;5072344;28;20258;-66
2021/11/19 06:17:13;;;;;;;1093.03;999.90;;;27.00;95.20;;;;;;5070853;28;20178;-69
2021/11/19 06:19:44;;;;;;;1095.47;999.90;;;26.00;96.70;;;;;;5070864;28;20248;-70
2021/11/19 06:22:17;;;;;;;1097.63;999.90;;;25.10;97.90;;;;;;5069274;28;20175;-69
2021/11/19 06:24:47;;;;;;;1031.00;959.10;;;24.60;99.50;;;;;;5077820;28;20241;-68
2021/11/19 06:27:22;;;;;;;1048.57;967.77;;;24.20;99.90;;;;;;5072785;28;20177;-69
2021/11/19 06:30:00;;;;;;;1020.07;943.73;;;23.60;99.90;;;;;;5074640;28;20174;-70
2021/11/19 06:32:28;;;;;;;1020.97;942.03;;;23.20;99.90;;;;;;5074895;28;20240;-67
2021/11/19 06:34:56;;;;;;;1008.50;929.07;;;23.00;99.90;;;;;;5071591;28;20187;-67
2021/11/19 06:37:23;;;;;;;1007.60;925.03;;;22.70;99.90;;;;;;5076862;28;20184;-70
2021/11/19 06:39:51;;;;;;;1004.80;921.23;;;22.50;99.90;;;;;;5074797;28;20171;-65
2021/11/19 06:42:18;;;;;;;987.87;906.90;;;22.20;99.90;;;;;;5071006;28;20230;-68
2021/11/19 06:44:49;;;;;;;978.97;896.33;;;22.10;99.90;;;;;;5070154;28;20182;-70
2021/11/19 06:47:18;;;;;;;959.70;885.63;;;22.10;99.90;;;;;;5066303;28;20202;-67
2021/11/19 06:49:46;;;;;;;959.87;882.53;;;21.90;99.90;;;;;;5076318;28;20175;-70
2021/11/19 06:52:13;;;;;;;956.63;878.93;;;21.80;99.90;;;;;;5074835;28;20202;-69
2021/11/19 06:54:41;;;;;;;948.93;872.27;;;21.60;99.90;;;;;;5075089;28;20183;-69
2021/11/19 06:57:10;;;;;;;962.23;881.07;;;21.50;99.90;;;;;;5073806;28;20206;-67
2021/11/19 06:59:40;;;;;;;944.63;862.30;;;21.40;99.90;;;;;;5068129;28;20183;-66
2021/11/19 07:02:09;;;;;;;939.00;862.40;;;21.30;99.90;;;;;;5073990;28;20641;-68
2021/11/19 07:04:37;;;;;;;925.13;850.47;;;21.50;99.90;;;;;;5078515;28;20716;-67
2021/11/19 07:07:09;;;;;;;940.07;857.17;;;21.30;99.90;;;;;;5073905;28;20641;-66
2021/11/19 07:09:38;;;;;;;927.23;842.80;;;21.10;99.90;;;;;;5067930;28;20191;-68
2021/11/19 07:12:09;;;;;;;884.67;821.73;;;21.00;99.90;;;;;;5073656;28;20645;-70
2021/11/19 07:14:37;;;;;;;810.77;757.00;;;20.70;99.90;;;;;;5077365;28;20219;-67
2021/11/19 07:17:07;;;;;;;864.83;803.93;;;20.60;99.90;;;;;;5073883;28;20179;-66
2021/11/19 07:19:36;;;;;;;893.90;826.83;;;20.50;99.90;;;;;;5082806;28;20267;-66
2021/11/19 07:22:04;;;;;;;862.53;801.63;;;20.50;99.90;;;;;;5078467;28;20270;-69
2021/11/19 07:24:33;;;;;;;872.80;809.40;;;20.50;99.90;;;;;;5075495;28;20250;-65
2021/11/19 07:27:01;;;;;;;882.87;818.00;;;20.40;99.90;;;;;;5074405;28;20238;-68
2021/11/19 07:29:28;;;;;;;866.67;802.57;;;20.30;99.90;;;;;;5073671;28;20555;-68
2021/11/19 07:31:56;;;;;;;858.83;796.00;;;20.20;99.90;;;;;;5074040;28;20567;-71
2021/11/19 07:34:24;;;;;;;868.80;803.93;;;20.10;99.90;;;;;;5074553;28;20665;-69
2021/11/19 07:36:52;;;;;;;866.90;799.70;;;20.10;99.90;;;;;;5074136;28;20179;-71
2021/11/19 07:39:19;;;;;;;876.33;805.60;;;20.10;99.90;;;;;;5073940;28;20404;-68
2021/11/19 07:41:46;;;;;;;867.37;800.47;;;20.00;99.90;;;;;;5074152;28;20262;-69
2021/11/19 07:44:17;;;;;;;852.90;787.10;;;19.90;99.90;;;;;;5073719;28;20179;-71
2021/11/19 07:46:44;;;;;;;848.23;784.07;;;19.90;99.90;;;;;;5074532;28;20202;-66
2021/11/19 07:49:12;;;;;;;857.77;786.20;;;19.70;99.90;;;;;;5076397;28;20179;-69
2021/11/19 07:51:42;;;;;;;861.73;793.23;;;19.50;99.90;;;;;;5073982;28;20189;-68
2021/11/19 07:54:10;;;;;;;858.07;787.27;;;19.50;99.90;;;;;;5074009;28;20262;-66
2021/11/19 07:56:39;;;;;;;850.60;781.77;;;19.50;99.90;;;;;;5071153;28;20691;-67
2021/11/19 07:59:22;;;;;;;859.00;789.37;;;19.50;99.90;;;;;;5073361;28;20186;-66
2021/11/19 08:01:50;;;;;;;841.57;772.63;;;19.40;99.90;;;;;;5073889;28;20187;-69
2021/11/19 08:04:18;;;;;;;834.83;765.00;;;19.40;99.90;;;;;;5073624;28;20182;-67
2021/11/19 08:06:45;;;;;;;844.87;777.47;;;19.40;99.90;;;;;;5070305;28;20930;-67
2021/11/19 08:09:13;;;;;;;840.67;775.83;;;19.40;99.90;;;;;;5069719;28;20515;-71
2021/11/19 08:11:41;;;;;;;843.00;773.30;;;19.40;99.90;;;;;;5073212;28;20191;-68
2021/11/19 08:14:09;;;;;;;845.77;778.17;;;19.40;99.90;;;;;;5071993;28;20565;-67
2021/11/19 08:16:49;;;;;;;839.07;770.87;;;19.50;99.90;;;;;;5068648;28;20180;-71
2021/11/19 08:19:28;;;;;;;839.23;773.77;;;19.50;99.90;;;;;;5068870;28;20221;-67
2021/11/19 08:21:58;;;;;;;827.33;765.07;;;19.30;99.90;;;;;;5070682;28;20698;-68
2021/11/19 08:24:28;;;;;;;846.20;781.67;;;19.30;99.90;;;;;;5073803;28;20183;-70
2021/11/19 08:27:04;;;;;;;836.10;770.63;;;19.20;99.90;;;;;;5074497;28;20195;-70
2021/11/19 08:29:34;;;;;;;823.17;756.80;;;19.10;99.90;;;;;;5073150;28;20171;-68
2021/11/19 08:32:04;;;;;;;810.37;750.37;;;19.00;99.90;;;;;;5074285;28;20187;-70
2021/11/19 08:34:32;;;;;;;807.60;746.60;;;19.00;99.90;;;;;;5075825;28;20206;-70
2021/11/19 08:37:01;;;;;;;809.10;749.60;;;19.10;99.90;;;;;;5076392;28;20179;-68
2021/11/19 08:39:29;;;;;;;813.90;753.23;;;19.00;99.90;;;;;;5072280;28;20278;-68
2021/11/19 08:41:57;;;;;;;807.27;745.10;;;19.00;99.90;;;;;;5071036;28;20232;-69
2021/11/19 08:44:25;;;;;;;831.87;767.37;;;19.00;99.90;;;;;;5072375;28;21326;-68
2021/11/19 08:46:55;;;;;;;811.37;749.00;;;19.00;99.90;;;;;;5072732;28;20183;-70
2021/11/19 08:49:26;;;;;;;812.57;748.63;;;19.00;99.90;;;;;;5072184;28;20661;-69
2021/11/19 08:51:55;;;;;;;820.07;752.83;;;19.00;99.90;;;;;;5071884;28;20183;-69
2021/11/19 08:54:23;;;;;;;828.13;756.80;;;18.90;99.90;;;;;;5070715;28;20227;-66
2021/11/19 08:56:57;;;;;;;831.83;759.10;;;18.90;99.90;;;;;;5073871;28;20179;-71
2021/11/19 08:59:26;;;;;;;835.10;762.73;;;18.80;99.90;;;;;;5072191;28;20190;-70
2021/11/19 09:01:55;;;;;;;819.67;750.57;;;18.80;99.90;;;;;;5076474;28;20612;-68
2021/11/19 09:04:23;;;;;;;825.53;753.37;;;18.80;99.90;;;;;;5071305;28;20614;-68
2021/11/19 09:06:51;;;;;;;827.30;758.10;;;18.80;99.90;;;;;;5072438;28;20183;-70
2021/11/19 09:09:19;;;;;;;825.50;753.87;;;18.80;99.90;;;;;;5076299;28;20571;-68
2021/11/19 09:11:48;;;;;;;829.27;756.40;;;18.70;99.90;;;;;;5071765;28;20648;-69
2021/11/19 09:14:17;;;;;;;825.90;752.03;;;18.80;99.90;;;;;;5071681;28;20582;-69
2021/11/19 09:17:11;;;;;;;816.63;742.80;;;18.80;99.90;;;;;;5071203;28;20176;-68
2021/11/19 09:19:57;;;;;;;817.27;740.70;;;18.80;99.90;;;;;;5064377;28;20555;-70
2021/11/19 09:23:01;;;;;;;804.93;742.23;;;18.80;99.90;;;;;;5072109;28;20218;-68
2021/11/19 09:25:30;;;;;;;791.67;730.77;;;18.80;99.90;;;;;;5040433;28;20195;-69
2021/11/19 09:27:58;;;;;;;809.57;742.73;;;18.80;99.90;;;;;;5071378;28;21067;-69
2021/11/19 09:30:36;;;;;;;809.00;740.47;;;18.90;99.90;;;;;;5071398;28;20199;-71
2021/11/19 09:33:10;;;;;;;829.03;757.23;;;18.90;99.90;;;;;;5071990;28;20219;-68
2021/11/19 09:35:38;;;;;;;821.60;750.20;;;18.90;99.90;;;;;;5069960;28;20279;-69
2021/11/19 09:38:09;;;;;;;811.97;745.07;;;19.00;99.90;;;;;;5072500;28;20179;-69
2021/11/19 09:41:02;;;;;;;829.33;757.53;;;19.00;99.90;;;;;;5073269;28;20759;-70
2021/11/19 09:43:51;;;;;;;823.30;749.83;;;19.00;99.90;;;;;;5070322;28;20190;-68
2021/11/19 09:46:37;;;;;;;836.47;761.47;;;19.00;99.90;;;;;;5071107;28;20284;-68
2021/11/19 09:49:31;;;;;;;836.17;759.20;;;19.00;99.90;;;;;;5070847;28;20172;-69
2021/11/19 09:52:35;;;;;;;849.40;770.53;;;18.90;99.90;;;;;;5066477;28;20266;-69
2021/11/19 09:55:11;;;;;;;845.43;762.57;;;18.90;99.90;;;;;;5069437;28;20543;-70
2021/11/19 09:58:10;;;;;;;840.60;756.63;;;18.90;99.90;;;;;;5069716;28;20179;-68
2021/11/19 10:01:18;;;;;;;827.73;758.40;;;18.90;99.90;;;;;;5031984;28;20195;-68
2021/11/19 10:04:06;;;;;;;812.60;749.83;;;18.90;99.90;;;;;;5066727;28;20256;-70
2021/11/19 10:06:46;;;;;;;803.63;740.30;;;18.90;99.90;;;;;;5071769;28;20643;-69
2021/11/19 10:09:40;;;;;;;826.57;761.73;;;18.90;99.90;;;;;;5071308;28;20179;-69
2021/11/19 10:12:50;;;;;;;826.37;756.97;;;18.90;99.90;;;;;;5070321;28;20259;-68
2021/11/19 10:15:23;;;;;;;819.67;752.73;;;19.00;99.90;;;;;;5070447;28;20194;-69
2021/11/19 10:18:32;;;;;;;819.17;754.90;;;19.00;99.90;;;;;;5068584;28;20248;-68
2021/11/19 10:21:18;;;;;;;816.00;751.13;;;18.90;99.90;;;;;;5071173;28;20186;-69
2021/11/19 10:23:54;;;;;;;819.83;741.47;;;19.00;99.90;;;;;;5066293;28;20190;-68
2021/11/19 10:26:36;;;;;;;836.47;758.00;;;19.00;99.90;;;;;;5070305;28;20189;-67
2021/11/19 10:29:04;;;;;;;836.93;756.20;;;18.90;99.90;;;;;;5069255;28;20195;-67
2021/11/19 10:31:31;;;;;;;838.87;753.97;;;18.90;99.90;;;;;;5074119;28;20536;-66
2021/11/19 10:34:11;;;;;;;842.80;757.20;;;18.90;99.90;;;;;;5072934;28;20552;-68
2021/11/19 10:37:00;;;;;;;825.87;742.70;;;18.80;99.90;;;;;;5070625;28;20671;-67
2021/11/19 10:40:04;;;;;;;809.37;736.97;;;18.80;99.90;;;;;;5072620;28;20281;-67
2021/11/19 10:42:43;;;;;;;803.57;734.37;;;18.80;99.90;;;;;;5074853;28;20186;-67
2021/11/19 10:45:20;;;;;;;833.67;758.53;;;18.90;99.90;;;;;;5070964;28;20184;-67
2021/11/19 10:48:11;;;;;;;830.90;755.17;;;18.90;99.90;;;;;;5069999;28;20266;-67
2021/11/19 10:51:06;;;;;;;820.23;750.37;;;18.90;99.90;;;;;;5069977;28;20208;-67
2021/11/19 10:53:57;;;;;;;814.53;739.27;;;18.90;99.90;;;;;;5065379;28;20681;-66
2021/11/19 10:56:33;;;;;;;816.37;743.37;;;18.90;99.90;;;;;;5070660;28;20183;-66
2021/11/19 10:59:21;;;;;;;825.73;753.20;;;18.90;99.90;;;;;;5068429;28;20191;-67
2021/11/19 11:02:09;;;;;;;814.00;739.37;;;19.00;99.90;;;;;;5043717;28;20684;-65
2021/11/19 11:04:52;;;;;;;813.03;746.10;;;18.90;99.90;;;;;;5072549;28;20262;-67
2021/11/19 11:07:28;;;;;;;826.57;746.20;;;18.90;99.90;;;;;;5074459;28;20281;-67
2021/11/19 11:09:59;;;;;;;820.57;741.70;;;18.90;99.90;;;;;;5073716;28;20583;-67
2021/11/19 11:12:44;;;;;;;844.70;764.80;;;18.90;99.90;;;;;;5073981;28;20199;-67
2021/11/19 11:15:26;;;;;;;844.73;761.90;;;19.00;99.90;;;;;;5072473;28;20191;-67
2021/11/19 11:18:11;;;;;;;847.23;766.20;;;19.00;99.90;;;;;;5069984;28;20179;-66
2021/11/19 11:20:44;;;;;;;829.07;750.23;;;19.00;99.90;;;;;;5074341;28;20194;-67
2021/11/19 11:23:34;;;;;;;859.33;779.37;;;19.00;99.90;;;;;;5074165;28;20210;-67
2021/11/19 11:26:07;;;;;;;842.93;766.47;;;18.90;99.90;;;;;;5073645;28;20175;-67
2021/11/19 11:28:40;;;;;;;829.70;751.13;;;18.90;99.90;;;;;;5076891;28;20608;-66
2021/11/19 11:31:42;;;;;;;833.13;759.33;;;18.90;99.90;;;;;;5078057;28;20226;-67
2021/11/19 11:34:48;;;;;;;823.43;754.90;;;18.90;99.90;;;;;;5072308;28;20210;-67
2021/11/19 11:37:18;;;;;;;839.57;764.07;;;19.10;99.90;;;;;;5073143;28;20179;-68
2021/11/19 11:40:00;;;;;;;842.50;761.03;;;19.00;99.90;;;;;;5074088;28;20641;-68
2021/11/19 11:42:45;;;;;;;838.37;757.20;;;19.10;99.90;;;;;;5076957;28;20193;-68
2021/11/19 11:45:40;;;;;;;834.17;757.20;;;19.10;99.90;;;;;;5074501;28;20505;-68
2021/11/19 11:48:34;;;;;;;825.30;745.20;;;19.10;99.90;;;;;;5073691;28;20191;-67
2021/11/19 11:51:20;;;;;;;826.83;752.93;;;19.10;99.90;;;;;;5073861;28;20179;-67
2021/11/19 11:54:18;;;;;;;831.27;757.20;;;19.10;99.90;;;;;;5088087;28;20206;-67
2021/11/19 11:56:49;;;;;;;817.40;746.77;;;19.00;99.90;;;;;;5073543;28;20578;-68
2021/11/19 11:59:32;;;;;;;809.03;735.87;;;19.10;99.90;;;;;;5073452;28;20219;-67
2021/11/19 12:02:29;;;;;;;809.00;738.33;;;19.20;99.90;;;;;;5070305;28;20187;-68
2021/11/19 12:05:16;;;;;;;792.37;725.17;;;19.10;99.90;;;;;;5071859;28;20581;-67
2021/11/19 12:07:56;;;;;;;814.90;747.60;;;19.10;99.90;;;;;;5071095;28;20641;-68
2021/11/19 12:10:51;;;;;;;810.40;740.80;;;19.10;99.90;;;;;;5073353;28;20548;-67
2021/11/19 12:13:56;;;;;;;807.43;741.90;;;19.10;99.90;;;;;;5072940;28;20238;-68
2021/11/19 12:16:39;;;;;;;835.93;757.60;;;19.10;99.90;;;;;;5063452;28;20230;-68
2021/11/19 12:19:11;;;;;;;822.47;756.50;;;19.00;99.90;;;;;;5072911;28;20214;-67
2021/11/19 12:22:06;;;;;;;826.10;754.50;;;19.10;99.90;;;;;;5073178;28;20214;-68
2021/11/19 12:24:43;;;;;;;822.63;751.17;;;19.10;99.90;;;;;;5072080;28;20179;-67
2021/11/19 12:27:34;;;;;;;839.53;765.53;;;19.00;99.90;;;;;;5072144;28;20174;-68
2021/11/19 12:30:28;;;;;;;829.57;755.47;;;19.00;99.90;;;;;;5072978;28;20182;-68
2021/11/19 12:33:02;;;;;;;826.10;749.23;;;19.00;99.90;;;;;;5067159;28;20346;-67
2021/11/19 12:35:55;;;;;;;835.60;755.00;;;18.90;99.90;;;;;;5067509;28;20188;-67
2021/11/19 12:38:29;;;;;;;831.40;751.97;;;18.90;99.90;;;;;;5072136;28;20168;-68
2021/11/19 12:41:16;;;;;;;823.27;744.77;;;18.90;99.90;;;;;;5072787;28;20508;-67